Time;durP1;ratioP1;P1;durP2;ratioP2;P2;SDS_P1;SDS_P2;PMS_P1;PMS_P2;Temp;Humidity;BMP_temperature;BMP_pressure;BME280_temperature;BME280_humidity;BME280_pressure;Samples;Min_cycle;Max_cycle;Signal;HPM_P1;HPM_P2
2024/01/23 00:01:22;;;;;;;0.95;0.60;;;;;;;10.02;81.85;100145.91;4990299;28;20042;-60
2024/01/23 00:03:48;;;;;;;6.97;0.63;;;;;;;9.88;82.45;100140.31;5011586;28;20034;-60
2024/01/23 00:06:13;;;;;;;2.45;0.80;;;;;;;9.68;83.42;100132.69;5012798;28;20045;-60
2024/01/23 00:08:39;;;;;;;2.38;0.90;;;;;;;9.81;83.32;100136.75;5013506;28;20084;-60
2024/01/23 00:11:05;;;;;;;4.22;0.98;;;;;;;9.72;83.34;100130.84;5017766;28;20021;-59
2024/01/23 00:13:31;;;;;;;2.20;0.88;;;;;;;9.75;83.68;100136.28;5007912;28;20419;-60
2024/01/23 00:15:56;;;;;;;6.70;1.33;;;;;;;9.83;83.31;100131.78;5005188;28;20041;-60
2024/01/23 00:18:22;;;;;;;4.38;0.68;;;;;;;9.99;82.12;100137.78;4992602;28;20101;-59
2024/01/23 00:20:48;;;;;;;4.50;0.38;;;;;;;9.81;83.22;100139.44;4996915;28;20037;-59
2024/01/23 00:23:13;;;;;;;6.30;0.82;;;;;;;9.77;82.51;100154.75;4995654;28;20057;-60
2024/01/23 00:25:39;;;;;;;3.00;0.80;;;;;;;9.88;83.20;100144.91;4993871;28;20064;-60
2024/01/23 00:28:06;;;;;;;1.25;0.77;;;;;;;9.80;83.84;100137.88;5014845;28;20087;-60
2024/01/23 00:30:32;;;;;;;1.73;0.55;;;;;;;9.72;83.82;100142.38;5019046;28;20095;-60
2024/01/23 00:33:01;;;;;;;7.57;0.88;;;;;;;9.88;83.28;100142.22;4997586;28;20074;-59
2024/01/23 00:35:27;;;;;;;7.15;0.63;;;;;;;9.85;82.96;100143.72;4995609;28;20033;-59
2024/01/23 00:37:52;;;;;;;3.53;0.50;;;;;;;9.86;82.97;100147.19;4995569;28;20092;-59
2024/01/23 00:40:18;;;;;;;3.03;0.55;;;;;;;9.91;83.12;100152.28;4998093;28;20033;-59
2024/01/23 00:42:43;;;;;;;2.85;0.82;;;;;;;9.91;82.94;100149.59;5014044;28;20105;-59
2024/01/23 00:45:09;;;;;;;1.08;0.85;;;;;;;9.95;82.25;100156.56;5015967;28;20453;-59
2024/01/23 00:47:34;;;;;;;7.05;0.73;;;;;;;9.83;82.74;100147.94;5006867;28;20045;-59
2024/01/23 00:50:00;;;;;;;2.17;1.05;;;;;;;9.78;82.83;100167.81;4995511;28;20030;-58
2024/01/23 00:52:25;;;;;;;8.20;0.90;;;;;;;9.92;82.10;100159.19;4992338;28;20083;-57
2024/01/23 00:54:51;;;;;;;1.75;0.68;;;;;;;9.93;81.71;100164.19;4995450;28;20030;-59
2024/01/23 00:57:16;;;;;;;1.35;0.80;;;;;;;9.91;81.94;100160.34;5001200;28;20045;-57
2024/01/23 00:59:42;;;;;;;0.77;0.63;;;;;;;9.82;81.59;100162.50;5013198;28;20041;-59
2024/01/23 01:02:08;;;;;;;1.88;0.73;;;;;;;9.91;81.59;100154.97;5008441;28;20052;-59
2024/01/23 01:04:33;;;;;;;0.30;0.30;;;;;;;9.92;81.75;100167.25;5015910;28;20029;-59
2024/01/23 01:06:59;;;;;;;5.65;0.65;;;;;;;10.00;80.45;100158.94;5015490;28;20139;-59
2024/01/23 01:09:25;;;;;;;4.85;1.23;;;;;;;10.01;80.25;100167.78;5012474;28;20566;-60
2024/01/23 01:11:51;;;;;;;0.95;0.20;;;;;;;9.96;80.12;100162.72;5011954;28;20032;-59
2024/01/23 01:14:16;;;;;;;6.00;0.63;;;;;;;9.62;82.05;100169.88;5000273;28;20034;-59
2024/01/23 01:16:42;;;;;;;2.95;0.82;;;;;;;9.90;81.05;100207.97;4996941;28;20057;-60
2024/01/23 01:19:07;;;;;;;6.35;1.13;;;;;;;9.63;86.79;100230.56;4996649;28;20124;-56
2024/01/23 01:21:33;;;;;;;2.40;0.73;;;;;;;9.38;86.07;100237.44;4996017;28;20057;-56
2024/01/23 01:23:58;;;;;;;2.05;0.47;;;;;;;9.11;86.68;100238.44;5004480;28;20037;-59
2024/01/23 01:26:24;;;;;;;3.22;0.40;;;;;;;8.97;87.48;100214.00;5014881;28;20235;-59
2024/01/23 01:28:49;;;;;;;2.60;0.50;;;;;;;8.80;88.46;100209.84;5011744;28;20026;-59
2024/01/23 01:31:15;;;;;;;1.08;0.40;;;;;;;8.78;88.10;100220.16;5009803;28;20038;-59
2024/01/23 01:33:40;;;;;;;0.55;0.30;;;;;;;8.69;88.30;100221.50;5016278;28;20048;-59
2024/01/23 01:36:07;;;;;;;0.98;0.73;;;;;;;8.70;88.23;100228.41;5012837;28;20556;-60
2024/01/23 01:41:01;;;;;;;2.72;0.40;;;;;;;8.59;87.30;100225.53;4955005;28;20388;-61
2024/01/23 01:43:30;;;;;;;4.07;0.85;;;;;;;8.42;88.81;100233.19;4945539;28;20077;-57
2024/01/23 01:46:18;;;;;;;0.40;0.32;;;;;;;8.62;88.42;100232.84;4942220;28;21282;-61
2024/01/23 01:48:46;;;;;;;0.40;0.40;;;;;;;8.47;88.82;100246.31;4945106;28;20042;-61
2024/01/23 01:51:12;;;;;;;0.20;0.20;;;;;;;8.60;88.22;100237.78;4973370;28;20026;-59
2024/01/23 01:53:38;;;;;;;0.68;0.40;;;;;;;8.50;89.12;100245.59;4976588;28;20530;-60
2024/01/23 01:56:06;;;;;;;1.02;0.60;;;;;;;8.52;89.63;100243.34;4980941;28;20030;-61
2024/01/23 01:58:32;;;;;;;1.20;0.50;;;;;;;8.40;90.18;100249.59;4983357;28;20106;-61
2024/01/23 02:00:59;;;;;;;3.25;0.55;;;;;;;8.31;90.27;100250.94;4984178;28;20029;-57
2024/01/23 02:03:26;;;;;;;0.30;0.30;;;;;;;8.38;90.80;100251.88;4968771;28;20039;-58
2024/01/23 02:05:52;;;;;;;0.55;0.50;;;;;;;8.30;91.64;100266.25;4969859;28;20038;-61
2024/01/23 02:08:17;;;;;;;1.95;0.63;;;;;;;8.24;92.03;100270.31;4966283;28;20038;-60
2024/01/23 02:10:44;;;;;;;0.82;0.60;;;;;;;8.31;91.63;100272.38;4966250;28;20121;-58
2024/01/23 02:13:09;;;;;;;0.68;0.68;;;;;;;8.16;91.86;100269.38;4983700;28;20030;-59
2024/01/23 02:15:35;;;;;;;0.70;0.50;;;;;;;8.28;91.54;100262.38;4965301;28;20101;-59
2024/01/23 02:18:01;;;;;;;2.30;1.35;;;;;;;8.23;91.65;100271.41;4975689;28;20039;-60
2024/01/23 02:20:27;;;;;;;8.45;1.05;;;;;;;8.09;92.18;100279.91;4966765;28;20421;-60
2024/01/23 02:22:53;;;;;;;6.55;1.33;;;;;;;8.31;92.01;100275.84;4968025;28;20062;-59
2024/01/23 02:25:19;;;;;;;7.72;0.50;;;;;;;8.34;92.20;100277.06;4967548;28;20038;-60
2024/01/23 02:27:44;;;;;;;0.38;0.38;;;;;;;8.48;91.09;100288.88;4960585;28;20108;-60
2024/01/23 02:30:10;;;;;;;1.42;0.52;;;;;;;8.29;91.55;100291.53;4982401;28;20504;-60
2024/01/23 02:32:36;;;;;;;2.08;0.63;;;;;;;8.38;91.42;100283.31;4976344;28;20448;-58
2024/01/23 02:35:02;;;;;;;0.93;0.38;;;;;;;8.41;91.43;100296.00;4967853;28;20758;-57
2024/01/23 02:37:27;;;;;;;6.53;1.00;;;;;;;8.54;90.89;100297.44;4968288;28;20403;-61
2024/01/23 02:39:53;;;;;;;0.75;0.75;;;;;;;8.56;90.32;100295.97;4958918;28;20053;-61
2024/01/23 02:42:19;;;;;;;2.35;0.82;;;;;;;8.66;89.87;100298.13;4955889;28;20038;-60
2024/01/23 02:44:45;;;;;;;0.30;0.30;;;;;;;8.62;90.19;100283.06;4963947;28;20081;-58
2024/01/23 02:47:14;;;;;;;0.45;0.38;;;;;;;8.58;89.36;100296.41;4943341;28;20699;-58
2024/01/23 02:49:39;;;;;;;0.68;0.40;;;;;;;8.59;90.05;100300.66;4948798;28;20389;-62
2024/01/23 02:52:05;;;;;;;4.22;1.13;;;;;;;8.63;88.92;100304.19;4943974;28;20041;-59
2024/01/23 02:54:31;;;;;;;4.47;0.55;;;;;;;8.65;89.42;100304.59;4944906;28;20286;-60
2024/01/23 02:56:57;;;;;;;3.55;0.60;;;;;;;8.60;88.90;100296.03;4953628;28;20057;-61
2024/01/23 02:59:23;;;;;;;2.45;0.60;;;;;;;8.47;89.36;100308.81;4965468;28;20039;-56
2024/01/23 03:01:48;;;;;;;1.65;0.32;;;;;;;8.54;89.43;100303.59;4968136;28;20540;-56
2024/01/23 03:04:14;;;;;;;7.97;0.57;;;;;;;8.63;88.59;100296.13;4959112;28;20158;-60
2024/01/23 03:06:39;;;;;;;2.08;0.80;;;;;;;8.78;88.19;100289.97;4951837;28;20046;-59
2024/01/23 03:09:06;;;;;;;1.38;0.70;;;;;;;8.72;87.91;100295.94;4944668;28;20038;-59
2024/01/23 03:11:32;;;;;;;0.65;0.32;;;;;;;8.64;87.79;100305.75;4950602;28;20027;-60
2024/01/23 03:13:58;;;;;;;4.57;0.40;;;;;;;8.62;87.97;100320.63;4962021;28;20046;-60
2024/01/23 03:16:24;;;;;;;3.65;0.88;;;;;;;8.62;87.54;100321.41;4957702;28;20245;-60
2024/01/23 03:18:49;;;;;;;4.60;1.70;;;;;;;8.62;88.11;100323.31;4957344;28;20128;-60
2024/01/23 03:21:15;;;;;;;1.45;0.63;;;;;;;8.58;87.52;100319.78;4950139;28;20598;-57
2024/01/23 03:23:41;;;;;;;4.63;0.52;;;;;;;8.58;88.12;100325.13;4944650;28;20042;-62
2024/01/23 03:26:06;;;;;;;4.50;0.60;;;;;;;8.71;87.73;100323.94;4944360;28;20399;-61
2024/01/23 03:28:32;;;;;;;1.30;0.40;;;;;;;8.48;88.83;100331.06;4961905;28;20515;-62
2024/01/23 03:30:57;;;;;;;0.52;0.38;;;;;;;8.62;88.13;100329.47;4957973;28;20046;-61
2024/01/23 03:33:23;;;;;;;8.15;1.13;;;;;;;8.67;87.56;100339.94;4960602;28;20049;-61
2024/01/23 03:35:49;;;;;;;3.53;0.57;;;;;;;8.65;87.70;100363.66;4937646;28;20677;-61
2024/01/23 03:38:15;;;;;;;9.30;0.70;;;;;;;8.60;87.60;100358.56;4913092;28;20034;-61
2024/01/23 03:40:40;;;;;;;2.40;0.57;;;;;;;8.75;86.72;100368.50;4925561;28;20567;-60
2024/01/23 03:43:06;;;;;;;0.90;0.55;;;;;;;8.88;86.13;100371.84;4932793;28;20037;-59
2024/01/23 03:45:31;;;;;;;0.88;0.43;;;;;;;8.75;86.22;100363.13;4931319;28;20126;-62
2024/01/23 03:47:57;;;;;;;6.45;0.65;;;;;;;8.74;86.12;100361.59;4948436;28;20386;-58
2024/01/23 03:50:23;;;;;;;1.40;1.30;;;;;;;8.68;86.77;100378.28;4935459;28;20508;-59
2024/01/23 03:52:49;;;;;;;2.00;0.57;;;;;;;8.74;86.60;100376.91;4926140;28;20050;-59
2024/01/23 03:55:14;;;;;;;2.05;0.60;;;;;;;8.75;86.91;100381.16;4926100;28;20050;-61
2024/01/23 03:57:40;;;;;;;1.45;0.60;;;;;;;8.73;86.23;100386.84;4931208;28;20035;-60
2024/01/23 04:00:07;;;;;;;0.77;0.73;;;;;;;8.79;87.09;100385.47;4954289;28;20031;-55
2024/01/23 04:02:37;;;;;;;2.10;0.82;;;;;;;8.85;87.02;100383.28;4963936;28;20043;-60
2024/01/23 04:05:04;;;;;;;1.13;0.65;;;;;;;8.77;87.07;100403.03;4956948;28;20038;-60
2024/01/23 04:07:31;;;;;;;3.83;1.10;;;;;;;8.58;88.02;100389.53;4932766;28;20038;-59
2024/01/23 04:09:57;;;;;;;4.47;0.60;;;;;;;8.65;88.84;100401.22;4933784;28;20121;-60
2024/01/23 04:12:22;;;;;;;10.55;0.93;;;;;;;8.56;89.62;100397.94;4912667;28;20037;-60
2024/01/23 04:14:48;;;;;;;5.15;0.80;;;;;;;8.47;89.74;100410.78;4933484;28;20089;-60
2024/01/23 04:17:13;;;;;;;4.35;0.82;;;;;;;8.65;88.25;100405.84;4940615;28;20105;-60
2024/01/23 04:19:39;;;;;;;2.50;0.88;;;;;;;8.59;87.95;100404.53;4936723;28;20067;-58
2024/01/23 04:22:04;;;;;;;2.42;0.82;;;;;;;8.58;87.77;100409.13;4932483;28;20045;-60
2024/01/23 04:24:30;;;;;;;2.65;1.10;;;;;;;8.65;87.20;100427.31;4930908;28;20065;-60
2024/01/23 04:26:55;;;;;;;8.38;1.08;;;;;;;8.75;87.00;100422.19;4932411;28;20039;-61
2024/01/23 04:29:21;;;;;;;2.40;0.73;;;;;;;8.73;86.68;100429.03;4924268;28;20037;-58
2024/01/23 04:31:46;;;;;;;3.60;0.75;;;;;;;8.62;86.94;100426.09;4966591;28;20105;-58
2024/01/23 04:34:12;;;;;;;9.75;0.70;;;;;;;8.58;87.69;100432.50;4958395;28;20409;-59
2024/01/23 04:36:37;;;;;;;6.57;0.75;;;;;;;8.59;87.42;100439.44;4933642;28;20405;-59
2024/01/23 04:39:04;;;;;;;5.07;0.98;;;;;;;8.62;86.98;100441.41;4936300;28;20030;-56
2024/01/23 04:41:30;;;;;;;6.85;1.10;;;;;;;8.70;86.30;100435.88;4955416;28;20069;-59
2024/01/23 04:43:56;;;;;;;2.65;0.52;;;;;;;8.71;86.10;100434.75;4947754;28;20045;-55
2024/01/23 04:46:21;;;;;;;2.17;0.52;;;;;;;8.77;86.42;100452.13;4986389;28;20050;-57
2024/01/23 04:48:47;;;;;;;1.23;0.57;;;;;;;8.75;85.80;100448.25;4965431;28;20022;-61
2024/01/23 04:51:13;;;;;;;4.97;0.70;;;;;;;8.74;85.47;100452.84;4959009;28;20101;-58
2024/01/23 04:53:38;;;;;;;6.13;1.38;;;;;;;8.79;85.18;100465.22;4958497;28;20033;-56
2024/01/23 04:56:04;;;;;;;2.65;1.02;;;;;;;8.64;85.20;100466.78;4955903;28;20029;-56
2024/01/23 04:58:30;;;;;;;1.67;0.50;;;;;;;8.80;85.49;100475.63;4979825;28;20047;-61
2024/01/23 05:00:55;;;;;;;1.40;0.98;;;;;;;8.86;85.21;100476.94;4966046;28;20030;-60
2024/01/23 05:03:24;;;;;;;2.33;0.93;;;;;;;8.79;85.31;100484.00;4986664;28;20042;-58
2024/01/23 05:05:49;;;;;;;4.95;0.82;;;;;;;8.78;84.65;100493.19;4984591;28;20030;-58
2024/01/23 05:08:15;;;;;;;2.00;0.82;;;;;;;8.53;86.75;100495.25;4979280;28;20038;-59
2024/01/23 05:10:43;;;;;;;4.32;1.45;;;;;;;8.68;87.06;100499.88;4980205;28;20034;-59
2024/01/23 05:13:08;;;;;;;4.85;1.20;;;;;;;8.74;86.87;100500.38;4934267;28;20433;-59
2024/01/23 05:15:34;;;;;;;5.82;0.93;;;;;;;8.83;86.92;100506.34;4958298;28;20038;-59
2024/01/23 05:17:59;;;;;;;8.32;0.90;;;;;;;8.71;87.79;100519.88;4950544;28;20093;-57
2024/01/23 05:20:25;;;;;;;2.92;0.90;;;;;;;8.55;87.67;100498.38;4965534;28;20040;-60
2024/01/23 05:22:50;;;;;;;1.23;0.60;;;;;;;8.64;87.75;100503.56;4981899;28;20072;-58
2024/01/23 05:25:17;;;;;;;2.65;0.85;;;;;;;8.77;87.15;100505.84;4980981;28;20038;-58
2024/01/23 05:27:43;;;;;;;5.47;0.90;;;;;;;8.71;87.95;100522.56;4980345;28;20529;-60
2024/01/23 05:30:09;;;;;;;8.98;1.55;;;;;;;8.76;88.23;100519.59;4961668;28;20030;-59
2024/01/23 05:32:34;;;;;;;4.22;1.00;;;;;;;8.57;88.64;100522.97;4972155;28;20026;-61
2024/01/23 05:35:03;;;;;;;3.15;1.15;;;;;;;8.48;90.17;100522.34;4952056;28;20042;-60
2024/01/23 05:37:30;;;;;;;0.57;0.57;;;;;;;8.74;89.07;100537.97;4956530;28;20046;-59
2024/01/23 05:39:55;;;;;;;2.60;0.60;;;;;;;8.61;89.40;100537.28;4960797;28;20044;-56
2024/01/23 05:42:21;;;;;;;7.05;1.08;;;;;;;8.68;89.40;100542.81;4959566;28;20034;-59
2024/01/23 05:44:46;;;;;;;9.32;0.75;;;;;;;8.71;89.92;100538.66;4962369;28;20484;-59
2024/01/23 05:47:12;;;;;;;4.72;0.98;;;;;;;8.83;89.98;100547.41;4957917;28;20121;-60
2024/01/23 05:49:37;;;;;;;1.90;0.80;;;;;;;8.74;90.44;100543.34;4981022;28;20045;-61
2024/01/23 05:52:03;;;;;;;1.25;0.57;;;;;;;8.73;90.41;100547.91;4981822;28;20062;-60
2024/01/23 05:54:28;;;;;;;3.20;0.75;;;;;;;8.61;91.74;100564.09;4984496;28;20041;-61
2024/01/23 05:56:54;;;;;;;2.67;0.80;;;;;;;8.59;91.93;100562.88;4960167;28;20112;-58
2024/01/23 05:59:19;;;;;;;3.08;1.15;;;;;;;8.50;93.61;100570.28;4955347;28;20042;-60
2024/01/23 06:01:45;;;;;;;1.25;0.52;;;;;;;8.52;93.41;100579.56;4937895;28;20679;-58
2024/01/23 06:04:10;;;;;;;8.13;1.08;;;;;;;8.52;93.89;100579.56;4957339;28;20034;-56
2024/01/23 06:06:42;;;;;;;2.70;0.47;;;;;;;8.54;93.74;100590.75;4939816;28;20961;-58
2024/01/23 06:09:10;;;;;;;5.20;1.35;;;;;;;8.44;93.97;100591.22;4956967;28;20053;-58
2024/01/23 06:11:35;;;;;;;1.33;0.65;;;;;;;8.64;92.60;100584.88;4961720;28;20093;-60
2024/01/23 06:14:01;;;;;;;3.65;1.02;;;;;;;8.48;93.26;100586.72;4965233;28;20046;-57
2024/01/23 06:16:26;;;;;;;5.85;0.70;;;;;;;8.58;93.98;100604.25;4955862;28;20038;-59
2024/01/23 06:18:51;;;;;;;1.15;0.65;;;;;;;8.50;94.14;100589.06;4954844;28;20037;-58
2024/01/23 06:21:18;;;;;;;2.95;0.75;;;;;;;8.68;93.43;100595.72;4960966;28;20060;-60
2024/01/23 06:23:43;;;;;;;15.23;1.42;;;;;;;8.69;93.62;100605.34;4959357;28;20068;-61
2024/01/23 06:26:09;;;;;;;5.35;0.77;;;;;;;8.59;93.98;100609.28;4955524;28;20057;-60
2024/01/23 06:28:34;;;;;;;1.08;0.90;;;;;;;8.34;95.20;100599.00;4960770;28;20030;-57
2024/01/23 06:30:59;;;;;;;3.72;0.80;;;;;;;8.23;96.72;100599.44;4963636;28;20557;-57
2024/01/23 06:33:25;;;;;;;3.65;0.45;;;;;;;8.16;97.62;100620.69;4956053;28;20117;-58
2024/01/23 06:35:50;;;;;;;10.80;2.15;;;;;;;8.28;96.36;100616.44;4908875;28;20034;-61
2024/01/23 06:38:16;;;;;;;1.85;0.80;;;;;;;8.33;96.64;100625.03;4944124;28;20049;-58
2024/01/23 06:40:41;;;;;;;0.47;0.43;;;;;;;8.28;96.73;100629.84;4957639;28;20034;-58
2024/01/23 06:43:06;;;;;;;6.97;1.60;;;;;;;8.27;97.60;100630.97;4959016;28;20046;-61
2024/01/23 06:45:32;;;;;;;4.07;0.77;;;;;;;8.42;96.55;100641.75;4946800;28;20030;-57
2024/01/23 06:47:58;;;;;;;2.42;0.50;;;;;;;8.39;96.50;100649.72;4934949;28;20035;-60
2024/01/23 06:50:29;;;;;;;2.15;0.70;;;;;;;8.44;96.57;100630.72;4954400;28;20247;-58
2024/01/23 06:52:55;;;;;;;6.95;1.27;;;;;;;8.35;96.83;100644.25;4988206;28;20049;-57
2024/01/23 06:55:20;;;;;;;3.00;0.82;;;;;;;8.53;95.90;100631.34;4984766;28;20042;-58
2024/01/23 06:57:46;;;;;;;1.75;1.00;;;;;;;8.28;97.36;100664.72;4958765;28;20027;-59
2024/01/23 07:00:12;;;;;;;1.73;1.02;;;;;;;8.29;97.58;100658.22;4988755;28;20072;-58
2024/01/23 07:02:37;;;;;;;5.25;0.90;;;;;;;8.25;97.11;100658.13;4981386;28;20034;-58
2024/01/23 07:05:03;;;;;;;2.33;1.00;;;;;;;8.45;95.85;100665.25;4992605;28;20045;-58
2024/01/23 07:07:29;;;;;;;2.92;1.13;;;;;;;8.48;95.92;100677.97;4990651;28;20025;-58
2024/01/23 07:09:54;;;;;;;3.55;1.83;;;;;;;8.53;94.92;100675.06;4973612;28;20515;-59
2024/01/23 07:12:20;;;;;;;3.50;0.85;;;;;;;8.48;95.06;100683.34;4985946;28;20042;-59
2024/01/23 07:14:46;;;;;;;4.82;0.95;;;;;;;8.33;95.87;100684.06;4992401;28;20539;-58
2024/01/23 07:17:11;;;;;;;4.47;1.38;;;;;;;8.67;94.88;100693.47;4986322;28;20023;-58
2024/01/23 07:19:37;;;;;;;5.05;0.73;;;;;;;8.63;94.96;100700.66;4989417;28;20038;-53
2024/01/23 07:22:03;;;;;;;8.18;0.93;;;;;;;8.64;95.01;100711.03;4982248;28;20050;-60
2024/01/23 07:24:28;;;;;;;6.13;1.38;;;;;;;8.21;97.32;100714.31;4989340;28;20053;-59
2024/01/23 07:26:54;;;;;;;3.40;1.08;;;;;;;8.40;97.28;100731.78;4984073;28;20101;-59
2024/01/23 07:29:19;;;;;;;3.45;1.00;;;;;;;8.46;96.59;100744.63;4993092;28;20048;-59
2024/01/23 07:31:45;;;;;;;8.10;1.45;;;;;;;8.30;97.95;100738.41;4986178;28;20125;-60
2024/01/23 07:34:10;;;;;;;1.15;0.70;;;;;;;8.41;97.75;100763.63;4989000;28;20117;-60
2024/01/23 07:36:36;;;;;;;3.25;0.88;;;;;;;8.63;96.98;100768.50;4990768;28;20038;-57
2024/01/23 07:39:01;;;;;;;7.15;1.27;;;;;;;8.41;97.82;100776.25;4987658;28;20856;-60
2024/01/23 07:41:27;;;;;;;9.48;0.88;;;;;;;8.63;97.04;100775.81;5079383;23;20042;-63
2024/01/23 07:52:21;;;;;;;13.32;1.20;;;;;;;8.57;96.88;100806.69;5024880;28;20128;-60
2024/01/23 07:54:47;;;;;;;4.50;0.90;;;;;;;8.37;96.99;100808.34;5035121;28;20091;-64
2024/01/23 07:57:12;;;;;;;8.88;0.90;;;;;;;8.70;96.18;100805.53;5044504;28;20127;-63
2024/01/23 07:59:39;;;;;;;1.90;0.55;;;;;;;8.60;95.70;100820.19;5042818;28;20109;-60
2024/01/23 08:02:04;;;;;;;6.20;1.05;;;;;;;8.58;95.66;100811.69;5045723;28;20562;-62
2024/01/23 08:04:30;;;;;;;8.15;1.52;;;;;;;8.73;95.29;100827.09;5044600;28;20116;-62
2024/01/23 08:06:55;;;;;;;4.40;1.15;;;;;;;8.97;94.24;100832.47;5043871;28;20616;-63
2024/01/23 08:09:21;;;;;;;4.85;1.35;;;;;;;8.91;94.08;100841.06;5047096;28;20036;-62
2024/01/23 08:11:46;;;;;;;8.70;1.55;;;;;;;8.84;94.39;100863.16;5046746;28;20037;-61
2024/01/23 08:14:12;;;;;;;1.88;0.68;;;;;;;8.98;93.53;100874.28;5042901;28;20690;-62
2024/01/23 08:16:37;;;;;;;5.43;1.20;;;;;;;9.08;93.08;100879.22;5042975;28;20038;-61
2024/01/23 08:19:03;;;;;;;7.22;1.95;;;;;;;9.02;92.49;100875.19;5044610;28;20025;-61
2024/01/23 08:21:28;;;;;;;9.13;1.77;;;;;;;9.03;92.38;100892.88;5045142;28;20401;-61
2024/01/23 08:23:54;;;;;;;5.40;0.77;;;;;;;9.08;92.53;100899.91;5038268;28;20033;-62
2024/01/23 08:26:19;;;;;;;6.22;0.93;;;;;;;9.09;92.45;100918.41;5046631;28;20483;-61
2024/01/23 08:28:45;;;;;;;6.03;1.77;;;;;;;9.05;91.62;100905.97;5027308;28;20037;-64
2024/01/23 08:31:10;;;;;;;2.28;0.82;;;;;;;9.17;91.95;100907.84;5043318;28;20028;-64
2024/01/23 08:33:36;;;;;;;3.65;1.10;;;;;;;9.16;91.43;100915.13;5044739;28;20036;-62
2024/01/23 08:36:03;;;;;;;3.60;1.00;;;;;;;9.29;91.00;100922.03;5049949;28;20055;-59
2024/01/23 08:38:29;;;;;;;11.20;1.63;;;;;;;9.26;91.04;100933.47;5027731;28;20040;-64
2024/01/23 08:40:55;;;;;;;8.52;1.30;;;;;;;9.34;90.76;100934.47;5039598;28;20029;-62
2024/01/23 08:43:21;;;;;;;6.07;1.33;;;;;;;9.28;90.99;100941.19;5042934;28;20037;-63
2024/01/23 08:45:46;;;;;;;8.10;2.58;;;;;;;9.44;90.63;100947.44;5037356;28;20029;-63
2024/01/23 08:48:11;;;;;;;2.15;0.65;;;;;;;9.22;91.08;100953.28;5039129;28;20044;-62
2024/01/23 08:50:37;;;;;;;7.63;1.25;;;;;;;9.25;91.05;100961.47;5041564;28;20462;-62
2024/01/23 08:53:03;;;;;;;12.75;4.15;;;;;;;9.25;90.71;100966.84;5046078;28;20040;-63
2024/01/23 08:55:29;;;;;;;2.47;0.75;;;;;;;9.48;90.46;100964.44;5043829;28;20048;-61
2024/01/23 08:57:55;;;;;;;9.57;1.02;;;;;;;9.40;89.59;100976.09;5039200;28;20040;-62
2024/01/23 09:00:21;;;;;;;3.88;1.60;;;;;;;9.35;89.87;100982.50;5043491;28;20067;-62
2024/01/23 09:02:48;;;;;;;5.47;0.70;;;;;;;9.45;89.66;100984.72;5042981;28;20017;-63
2024/01/23 09:05:14;;;;;;;6.63;1.42;;;;;;;9.34;89.46;101015.09;5048004;28;20037;-62
2024/01/23 09:07:39;;;;;;;3.58;0.52;;;;;;;9.41;90.24;101012.59;5048805;28;20025;-61
2024/01/23 09:10:06;;;;;;;3.90;0.95;;;;;;;9.41;89.86;101008.03;5047653;28;20065;-61
2024/01/23 09:12:33;;;;;;;4.55;1.20;;;;;;;9.33;89.25;101016.22;5045857;28;20044;-59
2024/01/23 09:14:59;;;;;;;13.27;1.83;;;;;;;9.41;89.08;101016.09;5048611;28;20033;-61
2024/01/23 09:17:25;;;;;;;5.60;1.75;;;;;;;9.45;88.64;101022.34;5048144;28;20549;-60
2024/01/23 09:19:50;;;;;;;3.60;1.27;;;;;;;9.34;89.69;101015.88;5048490;28;20028;-63
2024/01/23 09:22:16;;;;;;;5.05;1.23;;;;;;;9.49;89.32;101025.16;5047732;28;20117;-59
2024/01/23 09:24:42;;;;;;;1.95;1.23;;;;;;;9.53;88.45;101039.47;5046857;28;20048;-60
2024/01/23 09:27:07;;;;;;;8.32;1.02;;;;;;;9.83;87.96;101041.56;5047469;28;20036;-59
2024/01/23 09:29:33;;;;;;;5.93;1.02;;;;;;;9.77;87.24;101032.19;5050176;28;20551;-60
2024/01/23 09:31:59;;;;;;;11.57;2.40;;;;;;;9.92;86.74;101044.91;5046408;28;20017;-62
2024/01/23 09:34:25;;;;;;;5.05;2.00;;;;;;;9.99;86.14;101053.19;5046476;28;20033;-63
2024/01/23 09:36:50;;;;;;;7.65;1.65;;;;;;;9.79;86.92;101056.03;5045986;28;20040;-62
2024/01/23 09:39:17;;;;;;;12.65;1.75;;;;;;;9.85;87.38;101065.44;5044066;28;20036;-62
2024/01/23 09:41:46;;;;;;;3.95;1.52;;;;;;;9.88;86.13;101062.06;5041876;28;20116;-60
2024/01/23 09:44:13;;;;;;;5.45;0.85;;;;;;;9.78;87.07;101078.66;5046396;28;20040;-61
2024/01/23 09:46:39;;;;;;;7.18;1.35;;;;;;;9.93;86.70;101089.50;5029722;28;20043;-61
2024/01/23 09:49:05;;;;;;;6.95;1.33;;;;;;;9.83;87.13;101071.13;5043203;28;20052;-59
2024/01/23 09:51:34;;;;;;;8.60;1.10;;;;;;;9.77;86.19;101082.50;5046328;28;20059;-60
2024/01/23 09:54:00;;;;;;;6.70;1.33;;;;;;;9.77;86.65;101095.94;5045216;28;20037;-60
2024/01/23 09:56:25;;;;;;;4.78;1.48;;;;;;;9.71;86.48;101086.53;5043137;28;20048;-63
2024/01/23 09:58:51;;;;;;;4.32;0.85;;;;;;;9.90;86.61;101105.53;5028172;28;20040;-60
2024/01/23 10:01:19;;;;;;;9.25;1.02;;;;;;;9.86;86.17;101099.28;5047253;28;20028;-61
2024/01/23 10:03:48;;;;;;;4.82;0.63;;;;;;;9.80;86.65;101097.94;5047382;28;20112;-60
2024/01/23 10:06:14;;;;;;;11.45;1.15;;;;;;;9.90;85.68;101113.63;5044364;28;20029;-62
2024/01/23 10:08:40;;;;;;;2.22;1.08;;;;;;;10.04;85.89;101108.66;5040423;28;20109;-61
2024/01/23 10:11:05;;;;;;;4.70;1.73;;;;;;;10.02;85.02;101110.91;5043944;28;20028;-65
2024/01/23 10:13:31;;;;;;;4.88;1.63;;;;;;;9.89;85.86;101112.06;5045620;28;20381;-62
2024/01/23 10:15:59;;;;;;;7.68;1.95;;;;;;;10.05;85.54;101121.00;5044700;28;20040;-62
2024/01/23 10:18:25;;;;;;;1.48;0.60;;;;;;;10.03;84.20;101131.31;5043494;28;20037;-59
2024/01/23 10:20:51;;;;;;;8.52;1.92;;;;;;;10.06;84.36;101133.34;5046464;28;20063;-64
2024/01/23 10:23:17;;;;;;;10.70;1.67;;;;;;;9.86;84.68;101136.94;5047649;28;20040;-64
2024/01/23 10:25:42;;;;;;;8.35;1.70;;;;;;;9.82;85.25;101144.91;5046584;28;20418;-62
2024/01/23 10:28:09;;;;;;;7.47;1.85;;;;;;;9.90;85.07;101151.28;5043857;28;20021;-62
2024/01/23 10:30:38;;;;;;;4.90;1.35;;;;;;;10.11;83.99;101146.56;5031380;28;20052;-62
2024/01/23 10:33:05;;;;;;;8.77;2.22;;;;;;;10.23;83.84;101165.41;5040960;28;20060;-61
2024/01/23 10:35:34;;;;;;;12.55;2.28;;;;;;;10.18;84.55;101154.09;5045311;28;20028;-63
2024/01/23 10:38:02;;;;;;;5.88;1.20;;;;;;;10.25;82.71;101155.06;5033544;28;20025;-58
2024/01/23 10:40:29;;;;;;;5.53;1.58;;;;;;;10.35;82.92;101175.34;5043598;28;20030;-61
2024/01/23 10:43:06;;;;;;;8.95;2.03;;;;;;;10.41;81.93;101177.47;5047078;28;20067;-58
2024/01/23 10:45:31;;;;;;;2.47;0.85;;;;;;;10.49;81.86;101181.16;5030418;28;20052;-62
2024/01/23 10:47:59;;;;;;;9.38;2.08;;;;;;;10.28;83.08;101186.69;5041968;28;20060;-61
2024/01/23 10:50:25;;;;;;;2.17;1.55;;;;;;;10.59;81.73;101181.47;5042364;28;20036;-64
2024/01/23 10:52:53;;;;;;;4.57;1.17;;;;;;;10.32;81.54;101182.19;5042655;28;20072;-63
2024/01/23 10:55:21;;;;;;;20.13;1.48;;;;;;;10.37;81.95;101181.19;5043045;28;20079;-61
2024/01/23 10:57:48;;;;;;;3.80;1.02;;;;;;;10.14;82.74;101169.34;5037659;28;20097;-62
2024/01/23 11:00:16;;;;;;;2.95;2.08;;;;;;;10.09;82.69;101167.63;5040719;28;20032;-62
2024/01/23 11:03:04;;;;;;;7.75;2.00;;;;;;;10.22;81.88;101174.56;5046608;28;20036;-62
2024/01/23 11:05:53;;;;;;;5.88;1.40;;;;;;;10.06;82.66;101180.97;5043898;28;20037;-63
2024/01/23 11:08:27;;;;;;;6.50;1.38;;;;;;;10.18;82.09;101181.75;5034981;28;20100;-62
2024/01/23 11:10:59;;;;;;;7.18;1.10;;;;;;;9.98;83.24;101204.97;5042081;28;20045;-62
2024/01/23 11:13:38;;;;;;;3.88;0.80;;;;;;;10.22;81.50;101188.03;5041558;28;20053;-60
2024/01/23 11:16:06;;;;;;;7.90;1.95;;;;;;;9.91;82.66;101207.44;5046259;28;20666;-63
2024/01/23 11:18:33;;;;;;;2.88;0.90;;;;;;;9.96;82.78;101195.66;5040669;28;20035;-62
2024/01/23 11:21:22;;;;;;;4.25;1.38;;;;;;;10.06;82.39;101194.44;5044409;28;20084;-64
2024/01/23 11:23:58;;;;;;;4.30;2.40;;;;;;;10.05;82.70;101193.63;5013298;28;20390;-60
2024/01/23 11:26:26;;;;;;;5.85;1.10;;;;;;;10.18;82.67;101197.91;5044418;28;20064;-63
2024/01/23 11:29:01;;;;;;;9.98;2.28;;;;;;;10.37;81.35;101198.13;5038617;28;20525;-63
2024/01/23 11:31:28;;;;;;;4.43;1.17;;;;;;;10.18;82.02;101192.53;5044275;28;20470;-62
2024/01/23 11:34:29;;;;;;;6.20;1.00;;;;;;;10.19;81.84;101199.50;5048974;28;20029;-61
2024/01/23 11:36:55;;;;;;;2.15;0.98;;;;;;;10.11;81.62;101202.28;5039380;28;20424;-62
2024/01/23 11:39:22;;;;;;;8.93;1.40;;;;;;;10.11;81.82;101207.66;5045886;28;20127;-63